York — 9VED8 — position and weather

sailwx.info

Track history (hours):
 
Tides and Currents Weather Stations Pressure Air Temp Water Temp Dewpoint Dewpoint Depression Visibility Wind Speed Wind Dir Waves Ship Positions

York

Last reported at 2015-Jan-27 01:28 UTC. Time now 2015-Jan-27 03:24 UTC.
Position N 37°37' E 023°53'.

Length 100 m; draft 4.7 m.

Type: Tanker. MMSI: 565525000.

Date/timePositionNaut miles runAvg speedWind from/ knotsBaromVisibWave heightAir tempDewpointWater temp
2015-Jan-27 01:28N 37°37' E 023°53'1010.7
2015-Jan-27 00:33N 37°41' E 023°41'1111.1
2015-Jan-26 23:33N 37°50' E 023°33'1010.2
2015-Jan-26 22:33N 37°55' E 023°22'7 6.5
2015-Jan-26 21:33N 38°00' E 023°27'7 7.3
2015-Jan-26 20:33N 38°02' E 023°36'0 0.0
2015-Jan-26 19:32N 38°02' E 023°36'0 0.0
2015-Jan-26 18:32N 38°02' E 023°36'0 0.0
2015-Jan-26 17:32N 38°02' E 023°36'0 0.0
2015-Jan-26 16:26N 38°02' E 023°36'0 0.0
2015-Jan-26 15:32N 38°02' E 023°36'0 0.0
2015-Jan-26 14:32N 38°02' E 023°36'0 0.0
2015-Jan-26 13:32N 38°02' E 023°36'0 0.0
2015-Jan-26 12:29N 38°02' E 023°36'0 0.0
2015-Jan-26 11:29N 38°02' E 023°36'0 0.0
2015-Jan-26 10:32N 38°02' E 023°36'0 0.0
2015-Jan-26 09:29N 38°02' E 023°36'0 0.0
2015-Jan-26 08:32N 38°02' E 023°36'0 0.0
2015-Jan-26 07:32N 38°02' E 023°36'0 0.0
2015-Jan-26 06:32N 38°02' E 023°36'0 0.0
2015-Jan-26 05:32N 38°02' E 023°36'0 0.0
2015-Jan-26 04:32N 38°02' E 023°36'0 0.0
2015-Jan-26 03:32N 38°02' E 023°36'0 0.0
2015-Jan-26 02:32N 38°02' E 023°36'0 0.0
2015-Jan-26 01:32N 38°02' E 023°36'0 0.0
2015-Jan-26 00:32N 38°02' E 023°36'0 0.0
2015-Jan-25 23:32N 38°02' E 023°36'0 0.0
2015-Jan-25 22:32N 38°02' E 023°36'0 0.0
2015-Jan-25 21:29N 38°02' E 023°36'0 0.3
2015-Jan-25 20:33N 38°02' E 023°35'2 2.2
2015-Jan-25 19:29N 38°01' E 023°32'0 0.0
2015-Jan-25 14:05N 38°01' E 023°32'0 0.0
2015-Jan-25 13:32N 38°01' E 023°32'3 0.8
2015-Jan-25 09:27N 37°58' E 023°33'3 3.8
2015-Jan-25 08:33N 37°55' E 023°35'0 0.3
2015-Jan-25 07:33N 37°55' E 023°35'1 0.9
2015-Jan-25 06:31N 37°55' E 023°34'0 0.0
2015-Jan-25 05:33N 37°56' E 023°34'0 0.0
2015-Jan-25 04:33N 37°55' E 023°34'4 3.7
2015-Jan-25 03:33N 37°53' E 023°38'6 6.5
2015-Jan-25 02:33N 37°47' E 023°41'8 8.3
2015-Jan-25 01:32N 37°40' E 023°47'156 9.1
2015-Jan-24 08:26N 39°45' E 025°46'6511.0
2015-Jan-24 02:32N 40°28' E 026°50'  
Track history (hours):
 
Tides and Currents Weather Stations Pressure Air Temp Water Temp Dewpoint Dewpoint Depression Visibility Wind Speed Wind Dir Waves Ship Positions

York

Last reported at 2015-Jan-27 01:28 UTC. Time now 2015-Jan-27 03:24 UTC.
Position N 37°37' E 023°53'.

Length 100 m; draft 4.7 m.

Type: Tanker. MMSI: 565525000.

Date/timePositionNaut miles runAvg speedWind from/ knotsBaromVisibWave heightAir tempDewpointWater temp
2015-Jan-27 01:28N 37°37' E 023°53'1010.7
2015-Jan-27 00:33N 37°41' E 023°41'1111.1
2015-Jan-26 23:33N 37°50' E 023°33'1010.2
2015-Jan-26 22:33N 37°55' E 023°22'7 6.5
2015-Jan-26 21:33N 38°00' E 023°27'7 7.3
2015-Jan-26 20:33N 38°02' E 023°36'0 0.0
2015-Jan-26 19:32N 38°02' E 023°36'0 0.0
2015-Jan-26 18:32N 38°02' E 023°36'0 0.0
2015-Jan-26 17:32N 38°02' E 023°36'0 0.0
2015-Jan-26 16:26N 38°02' E 023°36'0 0.0
2015-Jan-26 15:32N 38°02' E 023°36'0 0.0
2015-Jan-26 14:32N 38°02' E 023°36'0 0.0
2015-Jan-26 13:32N 38°02' E 023°36'0 0.0
2015-Jan-26 12:29N 38°02' E 023°36'0 0.0
2015-Jan-26 11:29N 38°02' E 023°36'0 0.0
2015-Jan-26 10:32N 38°02' E 023°36'0 0.0
2015-Jan-26 09:29N 38°02' E 023°36'0 0.0
2015-Jan-26 08:32N 38°02' E 023°36'0 0.0
2015-Jan-26 07:32N 38°02' E 023°36'0 0.0
2015-Jan-26 06:32N 38°02' E 023°36'0 0.0
2015-Jan-26 05:32N 38°02' E 023°36'0 0.0
2015-Jan-26 04:32N 38°02' E 023°36'0 0.0
2015-Jan-26 03:32N 38°02' E 023°36'0 0.0
2015-Jan-26 02:32N 38°02' E 023°36'0 0.0
2015-Jan-26 01:32N 38°02' E 023°36'0 0.0
2015-Jan-26 00:32N 38°02' E 023°36'0 0.0
2015-Jan-25 23:32N 38°02' E 023°36'0 0.0
2015-Jan-25 22:32N 38°02' E 023°36'0 0.0
2015-Jan-25 21:29N 38°02' E 023°36'0 0.3
2015-Jan-25 20:33N 38°02' E 023°35'2 2.2
2015-Jan-25 19:29N 38°01' E 023°32'0 0.0
2015-Jan-25 14:05N 38°01' E 023°32'0 0.0
2015-Jan-25 13:32N 38°01' E 023°32'3 0.8
2015-Jan-25 09:27N 37°58' E 023°33'3 3.8
2015-Jan-25 08:33N 37°55' E 023°35'0 0.3
2015-Jan-25 07:33N 37°55' E 023°35'1 0.9
2015-Jan-25 06:31N 37°55' E 023°34'0 0.0
2015-Jan-25 05:33N 37°56' E 023°34'0 0.0
2015-Jan-25 04:33N 37°55' E 023°34'4 3.7
2015-Jan-25 03:33N 37°53' E 023°38'6 6.5
2015-Jan-25 02:33N 37°47' E 023°41'8 8.3
2015-Jan-25 01:32N 37°40' E 023°47'156 9.1
2015-Jan-24 08:26N 39°45' E 025°46'6511.0
2015-Jan-24 02:32N 40°28' E 026°50'  

Dump ship's entire track history